sensor_id;sensor_type;location;lat;lon;timestamp;temperature;humidity
14016;DHT22;7083;48.854;9.158;2023-04-21T00:02:13;3.20;99.90
14016;DHT22;7083;48.854;9.158;2023-04-21T00:04:41;3.20;99.90
14016;DHT22;7083;48.854;9.158;2023-04-21T00:07:09;3.30;99.90
14016;DHT22;7083;48.854;9.158;2023-04-21T00:09:36;3.30;99.90
14016;DHT22;7083;48.854;9.158;2023-04-21T00:12:03;3.20;99.90
14016;DHT22;7083;48.854;9.158;2023-04-21T00:14:30;3.40;99.90
14016;DHT22;7083;48.854;9.158;2023-04-21T00:16:56;3.20;99.90
14016;DHT22;7083;48.854;9.158;2023-04-21T00:19:24;3.20;99.90
14016;DHT22;7083;48.854;9.158;2023-04-21T00:21:52;3.20;99.90
14016;DHT22;7083;48.854;9.158;2023-04-21T00:24:23;3.20;99.90
14016;DHT22;7083;48.854;9.158;2023-04-21T00:26:49;3.20;99.90
14016;DHT22;7083;48.854;9.158;2023-04-21T00:29:16;3.20;99.90
14016;DHT22;7083;48.854;9.158;2023-04-21T00:31:43;3.20;99.90
14016;DHT22;7083;48.854;9.158;2023-04-21T00:34:10;3.20;99.90
14016;DHT22;7083;48.854;9.158;2023-04-21T00:36:36;3.20;99.90
14016;DHT22;7083;48.854;9.158;2023-04-21T00:39:04;3.20;99.90
14016;DHT22;7083;48.854;9.158;2023-04-21T00:41:32;3.20;99.90
14016;DHT22;7083;48.854;9.158;2023-04-21T00:44:00;3.20;99.90
14016;DHT22;7083;48.854;9.158;2023-04-21T00:46:27;3.20;99.90
14016;DHT22;7083;48.854;9.158;2023-04-21T00:48:54;3.20;99.90
14016;DHT22;7083;48.854;9.158;2023-04-21T00:51:20;3.20;99.90
14016;DHT22;7083;48.854;9.158;2023-04-21T00:53:47;3.20;99.90
14016;DHT22;7083;48.854;9.158;2023-04-21T00:56:17;3.20;99.90
14016;DHT22;7083;48.854;9.158;2023-04-21T00:58:44;3.30;99.90
14016;DHT22;7083;48.854;9.158;2023-04-21T01:01:12;3.20;99.90
14016;DHT22;7083;48.854;9.158;2023-04-21T01:03:40;3.20;99.90
14016;DHT22;7083;48.854;9.158;2023-04-21T01:06:08;3.30;99.90
14016;DHT22;7083;48.854;9.158;2023-04-21T01:08:35;3.30;99.90
14016;DHT22;7083;48.854;9.158;2023-04-21T01:11:08;3.20;99.90
14016;DHT22;7083;48.854;9.158;2023-04-21T01:13:36;3.20;99.90
14016;DHT22;7083;48.854;9.158;2023-04-21T01:16:04;3.20;99.90
14016;DHT22;7083;48.854;9.158;2023-04-21T01:18:31;3.10;99.90
14016;DHT22;7083;48.854;9.158;2023-04-21T01:20:58;3.10;99.90
14016;DHT22;7083;48.854;9.158;2023-04-21T01:23:26;3.10;99.90
14016;DHT22;7083;48.854;9.158;2023-04-21T01:25:53;3.10;99.90
14016;DHT22;7083;48.854;9.158;2023-04-21T01:28:21;3.00;99.90
14016;DHT22;7083;48.854;9.158;2023-04-21T01:30:48;2.90;99.90
14016;DHT22;7083;48.854;9.158;2023-04-21T01:33:14;2.90;99.90
14016;DHT22;7083;48.854;9.158;2023-04-21T01:35:41;2.80;99.90
14016;DHT22;7083;48.854;9.158;2023-04-21T01:38:08;2.80;99.90
14016;DHT22;7083;48.854;9.158;2023-04-21T01:40:37;2.70;99.90
14016;DHT22;7083;48.854;9.158;2023-04-21T01:43:06;2.70;99.90
14016;DHT22;7083;48.854;9.158;2023-04-21T01:45:33;2.60;99.90
14016;DHT22;7083;48.854;9.158;2023-04-21T01:48:00;2.60;99.90
14016;DHT22;7083;48.854;9.158;2023-04-21T01:50:27;2.50;99.90
14016;DHT22;7083;48.854;9.158;2023-04-21T01:52:54;2.50;99.90
14016;DHT22;7083;48.854;9.158;2023-04-21T01:55:21;2.50;99.90
14016;DHT22;7083;48.854;9.158;2023-04-21T01:57:49;2.50;99.90
14016;DHT22;7083;48.854;9.158;2023-04-21T02:00:16;2.40;99.90
14016;DHT22;7083;48.854;9.158;2023-04-21T02:02:43;2.40;99.90
14016;DHT22;7083;48.854;9.158;2023-04-21T02:05:10;2.30;99.90
14016;DHT22;7083;48.854;9.158;2023-04-21T02:07:36;2.30;99.90
14016;DHT22;7083;48.854;9.158;2023-04-21T02:10:03;2.20;99.90
14016;DHT22;7083;48.854;9.158;2023-04-21T02:12:30;2.20;99.90
14016;DHT22;7083;48.854;9.158;2023-04-21T02:14:58;2.20;99.90
14016;DHT22;7083;48.854;9.158;2023-04-21T02:17:25;2.20;99.90
14016;DHT22;7083;48.854;9.158;2023-04-21T02:19:51;2.10;99.90
14016;DHT22;7083;48.854;9.158;2023-04-21T02:22:18;2.10;99.90
14016;DHT22;7083;48.854;9.158;2023-04-21T02:24:46;2.10;99.90
14016;DHT22;7083;48.854;9.158;2023-04-21T02:27:13;2.00;99.90
14016;DHT22;7083;48.854;9.158;2023-04-21T02:29:40;2.10;99.90
14016;DHT22;7083;48.854;9.158;2023-04-21T02:32:08;2.00;99.90
14016;DHT22;7083;48.854;9.158;2023-04-21T02:34:34;2.00;99.90
14016;DHT22;7083;48.854;9.158;2023-04-21T02:37:01;1.90;99.90
14016;DHT22;7083;48.854;9.158;2023-04-21T02:39:28;1.90;99.90
14016;DHT22;7083;48.854;9.158;2023-04-21T02:41:55;1.90;99.90
14016;DHT22;7083;48.854;9.158;2023-04-21T02:44:22;1.80;99.90
14016;DHT22;7083;48.854;9.158;2023-04-21T02:46:49;1.90;99.90
14016;DHT22;7083;48.854;9.158;2023-04-21T02:49:17;1.80;99.90
14016;DHT22;7083;48.854;9.158;2023-04-21T02:51:44;1.80;99.90
14016;DHT22;7083;48.854;9.158;2023-04-21T02:54:10;1.80;99.90
14016;DHT22;7083;48.854;9.158;2023-04-21T02:56:37;1.70;99.90
14016;DHT22;7083;48.854;9.158;2023-04-21T02:59:04;1.70;99.90
14016;DHT22;7083;48.854;9.158;2023-04-21T03:01:30;1.70;99.90
14016;DHT22;7083;48.854;9.158;2023-04-21T03:03:57;1.70;99.90
14016;DHT22;7083;48.854;9.158;2023-04-21T03:06:25;1.70;99.90
14016;DHT22;7083;48.854;9.158;2023-04-21T03:08:52;1.60;99.90
14016;DHT22;7083;48.854;9.158;2023-04-21T03:11:19;1.60;99.90
14016;DHT22;7083;48.854;9.158;2023-04-21T03:13:45;1.60;99.90
14016;DHT22;7083;48.854;9.158;2023-04-21T03:16:12;1.60;99.90
14016;DHT22;7083;48.854;9.158;2023-04-21T03:18:39;1.70;99.90
14016;DHT22;7083;48.854;9.158;2023-04-21T03:21:05;1.80;99.90
14016;DHT22;7083;48.854;9.158;2023-04-21T03:23:33;1.90;99.90
14016;DHT22;7083;48.854;9.158;2023-04-21T03:26:05;2.00;99.90
14016;DHT22;7083;48.854;9.158;2023-04-21T03:28:32;2.00;99.90
14016;DHT22;7083;48.854;9.158;2023-04-21T03:30:58;2.10;99.90
14016;DHT22;7083;48.854;9.158;2023-04-21T03:33:25;2.20;99.90
14016;DHT22;7083;48.854;9.158;2023-04-21T03:35:52;2.30;99.90
14016;DHT22;7083;48.854;9.158;2023-04-21T03:38:18;2.30;99.90
14016;DHT22;7083;48.854;9.158;2023-04-21T03:40:46;2.40;99.90
14016;DHT22;7083;48.854;9.158;2023-04-21T03:43:13;2.40;99.90
14016;DHT22;7083;48.854;9.158;2023-04-21T03:45:40;2.50;99.90
14016;DHT22;7083;48.854;9.158;2023-04-21T03:48:06;2.50;99.90
14016;DHT22;7083;48.854;9.158;2023-04-21T03:50:33;2.50;99.90
14016;DHT22;7083;48.854;9.158;2023-04-21T03:53:00;2.60;99.90
14016;DHT22;7083;48.854;9.158;2023-04-21T03:55:26;2.50;99.90
14016;DHT22;7083;48.854;9.158;2023-04-21T03:57:54;2.60;99.90
14016;DHT22;7083;48.854;9.158;2023-04-21T04:00:21;2.50;99.90
14016;DHT22;7083;48.854;9.158;2023-04-21T04:02:48;2.50;99.90
14016;DHT22;7083;48.854;9.158;2023-04-21T04:05:14;2.50;99.90
14016;DHT22;7083;48.854;9.158;2023-04-21T04:07:41;2.50;99.90
14016;DHT22;7083;48.854;9.158;2023-04-21T04:10:08;2.50;99.90
14016;DHT22;7083;48.854;9.158;2023-04-21T04:12:35;2.40;99.90
14016;DHT22;7083;48.854;9.158;2023-04-21T04:15:04;2.40;99.90
14016;DHT22;7083;48.854;9.158;2023-04-21T04:17:32;2.40;99.90
14016;DHT22;7083;48.854;9.158;2023-04-21T04:19:58;2.40;99.90
14016;DHT22;7083;48.854;9.158;2023-04-21T04:22:26;2.40;99.90
14016;DHT22;7083;48.854;9.158;2023-04-21T04:24:52;2.40;99.90
14016;DHT22;7083;48.854;9.158;2023-04-21T04:27:20;2.40;99.90
14016;DHT22;7083;48.854;9.158;2023-04-21T04:29:46;2.40;99.90
14016;DHT22;7083;48.854;9.158;2023-04-21T04:32:15;2.40;99.90
14016;DHT22;7083;48.854;9.158;2023-04-21T04:34:42;2.50;99.90
14016;DHT22;7083;48.854;9.158;2023-04-21T04:37:08;2.50;99.90
14016;DHT22;7083;48.854;9.158;2023-04-21T04:39:35;2.60;99.90
14016;DHT22;7083;48.854;9.158;2023-04-21T04:42:02;2.60;99.90
14016;DHT22;7083;48.854;9.158;2023-04-21T04:44:29;2.70;99.90
14016;DHT22;7083;48.854;9.158;2023-04-21T04:46:56;2.80;99.90
14016;DHT22;7083;48.854;9.158;2023-04-21T04:49:24;2.80;99.90
14016;DHT22;7083;48.854;9.158;2023-04-21T04:51:51;2.80;99.90
14016;DHT22;7083;48.854;9.158;2023-04-21T04:54:17;2.80;99.90
14016;DHT22;7083;48.854;9.158;2023-04-21T04:56:44;2.90;99.90
14016;DHT22;7083;48.854;9.158;2023-04-21T04:59:11;2.90;99.90
14016;DHT22;7083;48.854;9.158;2023-04-21T05:01:38;3.00;99.90
14016;DHT22;7083;48.854;9.158;2023-04-21T05:04:06;3.00;99.90
14016;DHT22;7083;48.854;9.158;2023-04-21T05:06:34;3.10;99.90
14016;DHT22;7083;48.854;9.158;2023-04-21T05:09:01;3.10;99.90
14016;DHT22;7083;48.854;9.158;2023-04-21T05:11:29;3.20;99.90
14016;DHT22;7083;48.854;9.158;2023-04-21T05:13:56;3.20;99.90
14016;DHT22;7083;48.854;9.158;2023-04-21T05:16:22;3.20;99.90
14016;DHT22;7083;48.854;9.158;2023-04-21T05:18:49;3.30;99.90
14016;DHT22;7083;48.854;9.158;2023-04-21T05:21:22;3.30;99.90
14016;DHT22;7083;48.854;9.158;2023-04-21T05:23:50;3.40;99.90
14016;DHT22;7083;48.854;9.158;2023-04-21T05:26:17;3.40;99.90
14016;DHT22;7083;48.854;9.158;2023-04-21T05:28:44;3.50;99.90
14016;DHT22;7083;48.854;9.158;2023-04-21T05:31:10;3.60;99.90
14016;DHT22;7083;48.854;9.158;2023-04-21T05:33:37;3.70;99.90
14016;DHT22;7083;48.854;9.158;2023-04-21T05:36:06;3.80;99.90
14016;DHT22;7083;48.854;9.158;2023-04-21T05:38:33;3.90;99.90
14016;DHT22;7083;48.854;9.158;2023-04-21T05:41:01;4.00;99.90
14016;DHT22;7083;48.854;9.158;2023-04-21T05:43:28;3.90;99.90
14016;DHT22;7083;48.854;9.158;2023-04-21T05:45:57;3.90;99.90
14016;DHT22;7083;48.854;9.158;2023-04-21T05:48:24;3.90;99.90
14016;DHT22;7083;48.854;9.158;2023-04-21T05:50:50;4.00;99.90
14016;DHT22;7083;48.854;9.158;2023-04-21T05:53:17;4.00;99.90
14016;DHT22;7083;48.854;9.158;2023-04-21T05:55:44;4.00;99.90
14016;DHT22;7083;48.854;9.158;2023-04-21T05:58:12;4.10;99.90
14016;DHT22;7083;48.854;9.158;2023-04-21T06:00:38;4.20;99.90
14016;DHT22;7083;48.854;9.158;2023-04-21T06:03:05;4.30;99.90
14016;DHT22;7083;48.854;9.158;2023-04-21T06:05:32;4.40;99.90
14016;DHT22;7083;48.854;9.158;2023-04-21T06:07:59;4.40;99.90
14016;DHT22;7083;48.854;9.158;2023-04-21T06:10:25;4.40;99.90
14016;DHT22;7083;48.854;9.158;2023-04-21T06:12:52;4.40;99.90
14016;DHT22;7083;48.854;9.158;2023-04-21T06:15:20;4.50;99.90
14016;DHT22;7083;48.854;9.158;2023-04-21T06:17:51;4.60;99.90
14016;DHT22;7083;48.854;9.158;2023-04-21T06:20:18;4.70;99.90
14016;DHT22;7083;48.854;9.158;2023-04-21T06:22:44;4.80;99.90
14016;DHT22;7083;48.854;9.158;2023-04-21T06:25:11;5.00;99.90
14016;DHT22;7083;48.854;9.158;2023-04-21T06:27:38;5.20;99.90
14016;DHT22;7083;48.854;9.158;2023-04-21T06:30:06;5.30;99.90
14016;DHT22;7083;48.854;9.158;2023-04-21T06:32:34;5.50;99.90
14016;DHT22;7083;48.854;9.158;2023-04-21T06:35:01;5.50;99.90
14016;DHT22;7083;48.854;9.158;2023-04-21T06:37:27;5.60;99.90
14016;DHT22;7083;48.854;9.158;2023-04-21T06:39:54;5.60;99.90
14016;DHT22;7083;48.854;9.158;2023-04-21T06:42:21;5.70;99.90
14016;DHT22;7083;48.854;9.158;2023-04-21T06:44:48;5.80;99.90
14016;DHT22;7083;48.854;9.158;2023-04-21T06:47:16;6.00;99.90
14016;DHT22;7083;48.854;9.158;2023-04-21T06:49:44;6.10;99.90
14016;DHT22;7083;48.854;9.158;2023-04-21T06:52:10;6.30;99.90
14016;DHT22;7083;48.854;9.158;2023-04-21T06:54:37;6.50;99.90
14016;DHT22;7083;48.854;9.158;2023-04-21T06:57:04;6.60;99.90
14016;DHT22;7083;48.854;9.158;2023-04-21T06:59:31;6.70;99.90
14016;DHT22;7083;48.854;9.158;2023-04-21T07:01:58;6.70;99.90
14016;DHT22;7083;48.854;9.158;2023-04-21T07:04:25;6.70;99.90
14016;DHT22;7083;48.854;9.158;2023-04-21T07:06:57;6.70;99.90
14016;DHT22;7083;48.854;9.158;2023-04-21T07:09:24;6.60;99.90
14016;DHT22;7083;48.854;9.158;2023-04-21T07:11:52;6.50;99.90
14016;DHT22;7083;48.854;9.158;2023-04-21T07:14:19;6.40;99.90
14016;DHT22;7083;48.854;9.158;2023-04-21T07:16:46;6.30;99.90
14016;DHT22;7083;48.854;9.158;2023-04-21T07:19:12;6.30;99.90
14016;DHT22;7083;48.854;9.158;2023-04-21T07:21:39;6.30;99.90
14016;DHT22;7083;48.854;9.158;2023-04-21T07:24:08;6.30;99.90
14016;DHT22;7083;48.854;9.158;2023-04-21T07:26:35;6.40;99.90
14016;DHT22;7083;48.854;9.158;2023-04-21T07:29:02;6.50;99.90
14016;DHT22;7083;48.854;9.158;2023-04-21T07:31:28;6.50;99.90
14016;DHT22;7083;48.854;9.158;2023-04-21T07:33:55;6.60;99.90
14016;DHT22;7083;48.854;9.158;2023-04-21T07:36:21;6.70;99.90
14016;DHT22;7083;48.854;9.158;2023-04-21T07:38:49;6.90;99.90
14016;DHT22;7083;48.854;9.158;2023-04-21T07:41:17;7.00;99.90
14016;DHT22;7083;48.854;9.158;2023-04-21T07:43:43;7.20;99.90
14016;DHT22;7083;48.854;9.158;2023-04-21T07:46:10;7.30;99.90
14016;DHT22;7083;48.854;9.158;2023-04-21T07:48:38;7.50;99.90
14016;DHT22;7083;48.854;9.158;2023-04-21T07:51:05;7.60;99.90
14016;DHT22;7083;48.854;9.158;2023-04-21T07:53:32;7.70;99.90
14016;DHT22;7083;48.854;9.158;2023-04-21T07:55:58;7.80;99.90
14016;DHT22;7083;48.854;9.158;2023-04-21T07:58:26;8.00;99.90
14016;DHT22;7083;48.854;9.158;2023-04-21T08:00:53;8.20;99.90
14016;DHT22;7083;48.854;9.158;2023-04-21T08:03:20;8.20;99.90
14016;DHT22;7083;48.854;9.158;2023-04-21T08:05:46;8.40;99.90
14016;DHT22;7083;48.854;9.158;2023-04-21T08:08:13;8.60;99.90
14016;DHT22;7083;48.854;9.158;2023-04-21T08:10:44;8.70;99.90
14016;DHT22;7083;48.854;9.158;2023-04-21T08:13:11;8.90;99.90
14016;DHT22;7083;48.854;9.158;2023-04-21T08:15:39;9.00;99.90
14016;DHT22;7083;48.854;9.158;2023-04-21T08:18:06;9.10;99.90
14016;DHT22;7083;48.854;9.158;2023-04-21T08:20:33;9.20;99.90
14016;DHT22;7083;48.854;9.158;2023-04-21T08:23:00;9.20;99.90
14016;DHT22;7083;48.854;9.158;2023-04-21T08:25:26;9.20;99.90
14016;DHT22;7083;48.854;9.158;2023-04-21T08:27:53;9.30;99.90
14016;DHT22;7083;48.854;9.158;2023-04-21T08:30:20;9.40;99.90
14016;DHT22;7083;48.854;9.158;2023-04-21T08:32:48;9.30;99.90
14016;DHT22;7083;48.854;9.158;2023-04-21T08:35:14;9.30;99.90
14016;DHT22;7083;48.854;9.158;2023-04-21T08:37:41;9.40;99.90
14016;DHT22;7083;48.854;9.158;2023-04-21T08:40:08;9.40;99.90
14016;DHT22;7083;48.854;9.158;2023-04-21T08:42:37;9.50;99.90
14016;DHT22;7083;48.854;9.158;2023-04-21T08:45:04;9.50;99.90
14016;DHT22;7083;48.854;9.158;2023-04-21T08:47:32;9.50;99.90
14016;DHT22;7083;48.854;9.158;2023-04-21T08:50:00;9.60;99.90
14016;DHT22;7083;48.854;9.158;2023-04-21T08:52:26;9.50;99.90
14016;DHT22;7083;48.854;9.158;2023-04-21T08:54:54;9.60;99.90
14016;DHT22;7083;48.854;9.158;2023-04-21T08:57:21;9.60;99.90
14016;DHT22;7083;48.854;9.158;2023-04-21T08:59:48;9.80;99.90
14016;DHT22;7083;48.854;9.158;2023-04-21T09:02:15;9.90;99.90
14016;DHT22;7083;48.854;9.158;2023-04-21T09:04:45;10.00;99.90
14016;DHT22;7083;48.854;9.158;2023-04-21T09:07:29;10.00;99.90
14016;DHT22;7083;48.854;9.158;2023-04-21T09:09:57;10.00;99.90
14016;DHT22;7083;48.854;9.158;2023-04-21T09:12:24;9.90;99.90
14016;DHT22;7083;48.854;9.158;2023-04-21T09:14:51;9.80;99.90
14016;DHT22;7083;48.854;9.158;2023-04-21T09:17:20;9.80;99.90
14016;DHT22;7083;48.854;9.158;2023-04-21T09:19:47;9.80;99.90
14016;DHT22;7083;48.854;9.158;2023-04-21T09:22:16;9.80;99.90
14016;DHT22;7083;48.854;9.158;2023-04-21T09:24:47;9.80;99.90
14016;DHT22;7083;48.854;9.158;2023-04-21T09:27:14;9.90;99.90
14016;DHT22;7083;48.854;9.158;2023-04-21T09:29:45;10.00;99.90
14016;DHT22;7083;48.854;9.158;2023-04-21T09:32:16;10.00;99.90
14016;DHT22;7083;48.854;9.158;2023-04-21T09:34:43;10.00;99.90
14016;DHT22;7083;48.854;9.158;2023-04-21T09:37:11;10.00;99.90
14016;DHT22;7083;48.854;9.158;2023-04-21T09:39:43;10.10;99.90
14016;DHT22;7083;48.854;9.158;2023-04-21T09:42:10;10.20;99.90
14016;DHT22;7083;48.854;9.158;2023-04-21T09:44:37;10.30;99.90
14016;DHT22;7083;48.854;9.158;2023-04-21T09:47:04;10.40;99.90
14016;DHT22;7083;48.854;9.158;2023-04-21T09:49:35;10.60;99.90
14016;DHT22;7083;48.854;9.158;2023-04-21T09:52:05;10.70;99.90
14016;DHT22;7083;48.854;9.158;2023-04-21T09:54:34;10.70;99.90
14016;DHT22;7083;48.854;9.158;2023-04-21T09:57:03;10.80;99.90
14016;DHT22;7083;48.854;9.158;2023-04-21T09:59:34;10.90;99.90
14016;DHT22;7083;48.854;9.158;2023-04-21T10:02:04;11.00;99.90
14016;DHT22;7083;48.854;9.158;2023-04-21T10:04:33;11.00;99.90
14016;DHT22;7083;48.854;9.158;2023-04-21T10:07:00;11.10;99.90
14016;DHT22;7083;48.854;9.158;2023-04-21T10:09:32;11.10;99.90
14016;DHT22;7083;48.854;9.158;2023-04-21T10:12:03;11.20;99.90
14016;DHT22;7083;48.854;9.158;2023-04-21T10:14:30;11.20;99.90
14016;DHT22;7083;48.854;9.158;2023-04-21T10:17:00;11.30;99.90
14016;DHT22;7083;48.854;9.158;2023-04-21T10:19:28;11.30;99.90
14016;DHT22;7083;48.854;9.158;2023-04-21T10:21:59;11.40;99.90
14016;DHT22;7083;48.854;9.158;2023-04-21T10:24:27;11.50;99.90
14016;DHT22;7083;48.854;9.158;2023-04-21T10:26:56;11.60;99.90
14016;DHT22;7083;48.854;9.158;2023-04-21T10:29:31;11.70;99.90
14016;DHT22;7083;48.854;9.158;2023-04-21T10:31:58;11.80;99.90
14016;DHT22;7083;48.854;9.158;2023-04-21T10:34:33;11.90;99.90
14016;DHT22;7083;48.854;9.158;2023-04-21T10:37:11;11.90;99.90
14016;DHT22;7083;48.854;9.158;2023-04-21T10:39:52;12.00;99.90
14016;DHT22;7083;48.854;9.158;2023-04-21T10:42:24;12.00;99.90
14016;DHT22;7083;48.854;9.158;2023-04-21T10:44:59;12.10;99.90
14016;DHT22;7083;48.854;9.158;2023-04-21T10:47:27;12.30;99.90
14016;DHT22;7083;48.854;9.158;2023-04-21T10:49:55;12.40;99.90
14016;DHT22;7083;48.854;9.158;2023-04-21T10:52:30;12.60;99.90
14016;DHT22;7083;48.854;9.158;2023-04-21T10:55:06;12.70;99.90
14016;DHT22;7083;48.854;9.158;2023-04-21T10:57:35;12.80;99.90
14016;DHT22;7083;48.854;9.158;2023-04-21T11:00:04;13.00;99.90
14016;DHT22;7083;48.854;9.158;2023-04-21T11:02:32;13.00;99.90
14016;DHT22;7083;48.854;9.158;2023-04-21T11:05:00;13.20;99.90
14016;DHT22;7083;48.854;9.158;2023-04-21T11:07:27;13.30;99.90
14016;DHT22;7083;48.854;9.158;2023-04-21T11:09:59;13.50;99.90
14016;DHT22;7083;48.854;9.158;2023-04-21T11:12:27;13.80;99.90
14016;DHT22;7083;48.854;9.158;2023-04-21T11:14:54;13.90;99.90
14016;DHT22;7083;48.854;9.158;2023-04-21T11:17:22;14.10;99.90
14016;DHT22;7083;48.854;9.158;2023-04-21T11:19:51;14.20;99.90
14016;DHT22;7083;48.854;9.158;2023-04-21T11:22:18;14.50;99.90
14016;DHT22;7083;48.854;9.158;2023-04-21T11:24:47;14.60;98.90
14016;DHT22;7083;48.854;9.158;2023-04-21T11:27:15;14.90;99.90
14016;DHT22;7083;48.854;9.158;2023-04-21T11:29:43;15.10;97.20
14016;DHT22;7083;48.854;9.158;2023-04-21T11:32:11;15.20;96.80
14016;DHT22;7083;48.854;9.158;2023-04-21T11:34:39;15.20;95.80
14016;DHT22;7083;48.854;9.158;2023-04-21T11:37:06;15.30;96.40
14016;DHT22;7083;48.854;9.158;2023-04-21T11:39:33;15.50;95.80
14016;DHT22;7083;48.854;9.158;2023-04-21T11:42:00;15.50;94.90
14016;DHT22;7083;48.854;9.158;2023-04-21T11:44:32;15.50;96.10
14016;DHT22;7083;48.854;9.158;2023-04-21T11:47:10;15.60;95.90
14016;DHT22;7083;48.854;9.158;2023-04-21T11:49:44;15.70;95.40
14016;DHT22;7083;48.854;9.158;2023-04-21T11:52:18;15.80;95.60
14016;DHT22;7083;48.854;9.158;2023-04-21T11:54:46;15.90;95.50
14016;DHT22;7083;48.854;9.158;2023-04-21T11:57:17;16.10;95.00
14016;DHT22;7083;48.854;9.158;2023-04-21T11:59:44;16.30;93.80
14016;DHT22;7083;48.854;9.158;2023-04-21T12:02:12;16.40;92.70
14016;DHT22;7083;48.854;9.158;2023-04-21T12:04:39;16.50;92.50
14016;DHT22;7083;48.854;9.158;2023-04-21T12:07:07;16.60;91.90
14016;DHT22;7083;48.854;9.158;2023-04-21T12:09:35;16.70;91.50
14016;DHT22;7083;48.854;9.158;2023-04-21T12:12:03;16.80;92.10
14016;DHT22;7083;48.854;9.158;2023-04-21T12:14:32;16.90;90.80
14016;DHT22;7083;48.854;9.158;2023-04-21T12:16:59;17.00;91.00
14016;DHT22;7083;48.854;9.158;2023-04-21T12:19:34;17.10;90.90
14016;DHT22;7083;48.854;9.158;2023-04-21T12:22:07;17.20;91.00
14016;DHT22;7083;48.854;9.158;2023-04-21T12:24:34;17.30;91.00
14016;DHT22;7083;48.854;9.158;2023-04-21T12:27:01;17.20;91.10
14016;DHT22;7083;48.854;9.158;2023-04-21T12:29:28;17.30;90.00
14016;DHT22;7083;48.854;9.158;2023-04-21T12:31:55;17.50;90.40
14016;DHT22;7083;48.854;9.158;2023-04-21T12:34:21;17.70;90.70
14016;DHT22;7083;48.854;9.158;2023-04-21T12:36:48;17.90;89.00
14016;DHT22;7083;48.854;9.158;2023-04-21T12:39:16;18.20;90.80
14016;DHT22;7083;48.854;9.158;2023-04-21T12:41:44;18.40;90.10
14016;DHT22;7083;48.854;9.158;2023-04-21T12:44:11;18.60;90.30
14016;DHT22;7083;48.854;9.158;2023-04-21T12:46:38;18.90;88.40
14016;DHT22;7083;48.854;9.158;2023-04-21T12:49:05;18.80;84.30
14016;DHT22;7083;48.854;9.158;2023-04-21T12:51:32;18.80;84.30
14016;DHT22;7083;48.854;9.158;2023-04-21T12:53:58;18.90;85.00
14016;DHT22;7083;48.854;9.158;2023-04-21T12:56:26;19.10;86.00
14016;DHT22;7083;48.854;9.158;2023-04-21T12:58:53;19.30;84.50
14016;DHT22;7083;48.854;9.158;2023-04-21T13:01:20;19.40;80.80
14016;DHT22;7083;48.854;9.158;2023-04-21T13:03:47;19.50;81.50
14016;DHT22;7083;48.854;9.158;2023-04-21T13:06:13;19.80;83.70
14016;DHT22;7083;48.854;9.158;2023-04-21T13:08:40;20.20;83.30
14016;DHT22;7083;48.854;9.158;2023-04-21T13:11:07;20.40;78.10
14016;DHT22;7083;48.854;9.158;2023-04-21T13:13:35;20.90;77.70
14016;DHT22;7083;48.854;9.158;2023-04-21T13:16:04;21.40;76.80
14016;DHT22;7083;48.854;9.158;2023-04-21T13:18:31;22.10;75.20
14016;DHT22;7083;48.854;9.158;2023-04-21T13:20:59;23.00;73.20
14016;DHT22;7083;48.854;9.158;2023-04-21T13:23:26;24.50;70.70
14016;DHT22;7083;48.854;9.158;2023-04-21T13:33:18;25.70;65.30
14016;DHT22;7083;48.854;9.158;2023-04-21T13:43:06;29.30;57.50
14016;DHT22;7083;48.854;9.158;2023-04-21T13:45:33;30.90;51.40
14016;DHT22;7083;48.854;9.158;2023-04-21T13:48:01;31.40;51.10
14016;DHT22;7083;48.854;9.158;2023-04-21T13:50:29;31.70;48.80
14016;DHT22;7083;48.854;9.158;2023-04-21T13:52:56;32.00;49.80
14016;DHT22;7083;48.854;9.158;2023-04-21T13:55:22;32.80;49.60
14016;DHT22;7083;48.854;9.158;2023-04-21T13:57:49;33.10;47.10
14016;DHT22;7083;48.854;9.158;2023-04-21T14:00:15;32.90;48.60
14016;DHT22;7083;48.854;9.158;2023-04-21T14:02:42;33.80;45.40
14016;DHT22;7083;48.854;9.158;2023-04-21T14:05:10;33.70;46.50
14016;DHT22;7083;48.854;9.158;2023-04-21T14:07:37;33.60;47.90
14016;DHT22;7083;48.854;9.158;2023-04-21T14:10:05;33.80;45.70
14016;DHT22;7083;48.854;9.158;2023-04-21T14:12:32;33.70;47.30
14016;DHT22;7083;48.854;9.158;2023-04-21T14:14:58;33.80;46.00
14016;DHT22;7083;48.854;9.158;2023-04-21T14:17:25;34.10;45.80
14016;DHT22;7083;48.854;9.158;2023-04-21T14:19:52;34.30;45.20
14016;DHT22;7083;48.854;9.158;2023-04-21T14:22:19;34.50;45.60
14016;DHT22;7083;48.854;9.158;2023-04-21T14:24:46;34.50;44.70
14016;DHT22;7083;48.854;9.158;2023-04-21T14:27:13;34.90;44.70
14016;DHT22;7083;48.854;9.158;2023-04-21T14:29:39;35.10;44.00
14016;DHT22;7083;48.854;9.158;2023-04-21T14:32:06;34.80;47.10
14016;DHT22;7083;48.854;9.158;2023-04-21T14:34:32;35.00;46.00
14016;DHT22;7083;48.854;9.158;2023-04-21T14:36:59;35.10;46.30
14016;DHT22;7083;48.854;9.158;2023-04-21T14:39:27;35.70;43.60
14016;DHT22;7083;48.854;9.158;2023-04-21T14:41:54;35.60;45.00
14016;DHT22;7083;48.854;9.158;2023-04-21T14:44:20;35.60;44.70
14016;DHT22;7083;48.854;9.158;2023-04-21T14:46:47;35.50;45.40
14016;DHT22;7083;48.854;9.158;2023-04-21T14:49:13;35.70;45.70
14016;DHT22;7083;48.854;9.158;2023-04-21T14:51:40;36.20;43.60
14016;DHT22;7083;48.854;9.158;2023-04-21T14:54:07;36.30;44.30
14016;DHT22;7083;48.854;9.158;2023-04-21T14:56:35;36.20;42.30
14016;DHT22;7083;48.854;9.158;2023-04-21T14:59:01;36.00;42.10
14016;DHT22;7083;48.854;9.158;2023-04-21T15:01:28;36.00;41.20
14016;DHT22;7083;48.854;9.158;2023-04-21T15:03:55;35.70;42.90
14016;DHT22;7083;48.854;9.158;2023-04-21T15:06:23;35.80;43.20
14016;DHT22;7083;48.854;9.158;2023-04-21T15:08:50;36.10;42.30
14016;DHT22;7083;48.854;9.158;2023-04-21T15:11:17;36.60;40.30
14016;DHT22;7083;48.854;9.158;2023-04-21T15:13:45;36.60;41.50
14016;DHT22;7083;48.854;9.158;2023-04-21T15:16:12;37.10;40.90
14016;DHT22;7083;48.854;9.158;2023-04-21T15:18:39;36.90;39.70
14016;DHT22;7083;48.854;9.158;2023-04-21T15:21:06;36.70;41.70
14016;DHT22;7083;48.854;9.158;2023-04-21T15:23:33;36.20;40.90
14016;DHT22;7083;48.854;9.158;2023-04-21T15:26:00;36.30;40.50
14016;DHT22;7083;48.854;9.158;2023-04-21T15:28:27;35.90;40.90
14016;DHT22;7083;48.854;9.158;2023-04-21T15:30:55;36.10;41.40
14016;DHT22;7083;48.854;9.158;2023-04-21T15:33:21;35.30;41.20
14016;DHT22;7083;48.854;9.158;2023-04-21T15:35:48;35.20;42.90
14016;DHT22;7083;48.854;9.158;2023-04-21T15:38:15;33.30;43.00
14016;DHT22;7083;48.854;9.158;2023-04-21T15:40:41;31.90;45.50
14016;DHT22;7083;48.854;9.158;2023-04-21T15:43:08;30.40;47.90
14016;DHT22;7083;48.854;9.158;2023-04-21T15:45:35;28.60;48.20
14016;DHT22;7083;48.854;9.158;2023-04-21T15:48:03;27.10;51.70
14016;DHT22;7083;48.854;9.158;2023-04-21T15:50:30;26.00;54.80
14016;DHT22;7083;48.854;9.158;2023-04-21T15:52:57;25.20;56.40
14016;DHT22;7083;48.854;9.158;2023-04-21T15:55:23;24.50;56.50
14016;DHT22;7083;48.854;9.158;2023-04-21T15:57:52;23.70;58.80
14016;DHT22;7083;48.854;9.158;2023-04-21T16:00:19;23.20;59.60
14016;DHT22;7083;48.854;9.158;2023-04-21T16:02:46;22.70;61.40
14016;DHT22;7083;48.854;9.158;2023-04-21T16:05:15;22.40;64.80
14016;DHT22;7083;48.854;9.158;2023-04-21T16:07:42;22.10;67.00
14016;DHT22;7083;48.854;9.158;2023-04-21T16:10:10;22.00;67.00
14016;DHT22;7083;48.854;9.158;2023-04-21T16:12:36;21.90;67.20